createdAt,value
2023-11-17T00:00:03.350Z,1001.61
2023-11-17T00:00:24.430Z,1001.59
2023-11-17T00:00:45.505Z,1001.61
2023-11-17T00:01:06.591Z,1001.61
2023-11-17T00:01:27.629Z,1001.63
2023-11-17T00:01:48.734Z,1001.68
2023-11-17T00:02:09.844Z,1001.68
2023-11-17T00:02:30.890Z,1001.64
2023-11-17T00:02:52.048Z,1001.72
2023-11-17T00:03:13.243Z,1001.72
2023-11-17T00:03:34.437Z,1001.76
2023-11-17T00:03:55.668Z,1001.74
2023-11-17T00:04:16.945Z,1001.76
2023-11-17T00:04:38.140Z,1001.72
2023-11-17T00:04:59.271Z,1001.74
2023-11-17T00:05:20.319Z,1001.74
2023-11-17T00:05:41.365Z,1001.76
2023-11-17T00:06:02.520Z,1001.76
2023-11-17T00:06:23.568Z,1001.78
2023-11-17T00:06:44.668Z,1001.80
2023-11-17T00:07:05.721Z,1001.82
2023-11-17T00:07:26.757Z,1001.82
2023-11-17T00:07:47.846Z,1001.82
2023-11-17T00:08:08.896Z,1001.84
2023-11-17T00:08:30.075Z,1001.86
2023-11-17T00:08:51.204Z,1001.84
2023-11-17T00:09:12.267Z,1001.86
2023-11-17T00:09:33.303Z,1001.86
2023-11-17T00:09:54.396Z,1001.86
2023-11-17T00:10:15.546Z,1001.88
2023-11-17T00:10:36.617Z,1001.88
2023-11-17T00:10:57.679Z,1001.88
2023-11-17T00:11:18.724Z,1001.90
2023-11-17T00:11:39.775Z,1001.90
2023-11-17T00:12:00.837Z,1001.90
2023-11-17T00:12:21.904Z,1001.90
2023-11-17T00:12:43.159Z,1001.92
2023-11-17T00:13:04.296Z,1001.94
2023-11-17T00:13:25.416Z,1001.94
2023-11-17T00:13:46.456Z,1001.98
2023-11-17T00:14:07.536Z,1001.96
2023-11-17T00:14:28.598Z,1001.96
2023-11-17T00:14:49.683Z,1002.00
2023-11-17T00:15:10.772Z,1001.96
2023-11-17T00:15:31.811Z,1002.00
2023-11-17T00:15:52.993Z,1002.00
2023-11-17T00:16:14.128Z,1002.04
2023-11-17T00:16:35.309Z,1002.04
2023-11-17T00:16:56.427Z,1002.04
2023-11-17T00:17:17.464Z,1002.06
2023-11-17T00:17:38.544Z,1002.06
2023-11-17T00:17:59.651Z,1002.04
2023-11-17T00:18:20.734Z,1002.04
2023-11-17T00:18:41.808Z,1002.04
2023-11-17T00:19:02.936Z,1002.04
2023-11-17T00:19:23.998Z,1002.06
2023-11-17T00:19:45.027Z,1002.04
2023-11-17T00:20:06.091Z,1002.06
2023-11-17T00:20:27.145Z,1002.06
2023-11-17T00:20:48.202Z,1002.08
2023-11-17T00:21:09.284Z,1002.08
2023-11-17T00:21:30.318Z,1002.06
2023-11-17T00:21:51.418Z,1002.08
2023-11-17T00:22:12.500Z,1002.08
2023-11-17T00:22:33.554Z,1002.10
2023-11-17T00:22:54.605Z,1002.10
2023-11-17T00:23:15.662Z,1002.13
2023-11-17T00:23:36.745Z,1002.10
2023-11-17T00:23:57.806Z,1002.13
2023-11-17T00:24:18.889Z,1002.13
2023-11-17T00:24:39.916Z,1002.15
2023-11-17T00:25:01.062Z,1002.13
2023-11-17T00:25:22.177Z,1002.13
2023-11-17T00:25:43.226Z,1002.17
2023-11-17T00:26:04.312Z,1002.17
2023-11-17T00:26:25.369Z,1002.15
2023-11-17T00:26:46.431Z,1002.17
2023-11-17T00:27:07.489Z,1002.17
2023-11-17T00:27:28.555Z,1002.17
2023-11-17T00:27:49.641Z,1002.17
2023-11-17T00:28:10.697Z,1002.19
2023-11-17T00:28:31.750Z,1002.23
2023-11-17T00:28:52.812Z,1002.17
2023-11-17T00:29:13.870Z,1002.21
2023-11-17T00:29:34.941Z,1002.23
2023-11-17T00:29:56.007Z,1002.25
2023-11-17T00:30:17.079Z,1002.23
2023-11-17T00:30:38.140Z,1002.25
2023-11-17T00:30:59.243Z,1002.25
2023-11-17T00:31:20.332Z,1002.25
2023-11-17T00:31:41.351Z,1002.25
2023-11-17T00:32:02.470Z,1002.25
2023-11-17T00:32:23.511Z,1002.25
2023-11-17T00:32:44.581Z,1002.25
2023-11-17T00:33:05.710Z,1002.25
2023-11-17T00:33:26.760Z,1002.27
2023-11-17T00:33:47.910Z,1002.27
2023-11-17T00:34:09.012Z,1002.25
2023-11-17T00:34:30.101Z,1002.29
2023-11-17T00:34:51.297Z,1002.29
2023-11-17T00:35:12.420Z,1002.31
2023-11-17T00:35:33.459Z,1002.29
2023-11-17T00:35:54.518Z,1002.31
2023-11-17T00:36:15.589Z,1002.31
2023-11-17T00:36:36.654Z,1002.33
2023-11-17T00:36:57.736Z,1002.31
2023-11-17T00:37:18.790Z,1002.31
2023-11-17T00:37:39.888Z,1002.31
2023-11-17T00:38:00.932Z,1002.33
2023-11-17T00:38:21.988Z,1002.33
2023-11-17T00:38:43.071Z,1002.31
2023-11-17T00:39:04.135Z,1002.33
2023-11-17T00:39:25.240Z,1002.35
2023-11-17T00:39:46.301Z,1002.35
2023-11-17T00:40:07.377Z,1002.35
2023-11-17T00:40:28.462Z,1002.35
2023-11-17T00:40:49.516Z,1002.35
2023-11-17T00:41:17.690Z,1002.37
2023-11-17T00:41:37.567Z,1002.37
2023-11-17T00:41:58.609Z,1002.39
2023-11-17T00:42:19.683Z,1002.39
2023-11-17T00:42:40.752Z,1002.37
2023-11-17T00:43:01.858Z,1002.41
2023-11-17T00:43:22.940Z,1002.37
2023-11-17T00:43:43.965Z,1002.39
2023-11-17T00:44:05.043Z,1002.39
2023-11-17T00:44:26.119Z,1002.41
2023-11-17T00:44:47.178Z,1002.39
2023-11-17T00:45:08.231Z,1002.39
2023-11-17T00:45:29.340Z,1002.37
2023-11-17T00:45:50.497Z,1002.41
2023-11-17T00:46:11.734Z,1002.43
2023-11-17T00:46:32.880Z,1002.43
2023-11-17T00:46:54.063Z,1002.39
2023-11-17T00:47:15.229Z,1002.39
2023-11-17T00:47:36.326Z,1002.43
2023-11-17T00:47:57.431Z,1002.43
2023-11-17T00:48:18.475Z,1002.39
2023-11-17T00:48:39.512Z,1002.41
2023-11-17T00:49:00.579Z,1002.43
2023-11-17T00:49:21.684Z,1002.45
2023-11-17T00:49:42.744Z,1002.45
2023-11-17T00:50:03.793Z,1002.47
2023-11-17T00:50:24.882Z,1002.47
2023-11-17T00:50:45.935Z,1002.47
2023-11-17T00:51:06.994Z,1002.47
2023-11-17T00:51:28.039Z,1002.47
2023-11-17T00:51:49.120Z,1002.49
2023-11-17T00:52:10.494Z,1002.49
2023-11-17T00:52:31.515Z,1002.49
2023-11-17T00:52:52.576Z,1002.49
2023-11-17T00:53:13.634Z,1002.53
2023-11-17T00:53:34.696Z,1002.51
2023-11-17T00:53:55.761Z,1002.53
2023-11-17T00:54:16.836Z,1002.53
2023-11-17T00:54:37.938Z,1002.55
2023-11-17T00:54:58.962Z,1002.57
2023-11-17T00:55:20.064Z,1002.57
2023-11-17T00:55:41.846Z,1002.57
2023-11-17T00:56:02.899Z,1002.57
2023-11-17T00:56:23.961Z,1002.58
2023-11-17T00:56:45.040Z,1002.58
2023-11-17T00:57:06.084Z,1002.60
2023-11-17T00:57:27.126Z,1002.58
2023-11-17T00:57:48.223Z,1002.60
2023-11-17T00:58:09.304Z,1002.62
2023-11-17T00:58:30.385Z,1002.62
2023-11-17T00:58:51.427Z,1002.64
2023-11-17T00:59:12.490Z,1002.66
2023-11-17T00:59:33.528Z,1002.64
2023-11-17T00:59:54.609Z,1002.66
2023-11-17T01:00:15.641Z,1002.68
2023-11-17T01:00:36.689Z,1002.68
2023-11-17T01:00:58.058Z,1002.70
2023-11-17T01:01:19.438Z,1002.68
2023-11-17T01:01:40.595Z,1002.81
2023-11-17T01:02:01.790Z,1002.68
2023-11-17T01:02:22.872Z,1002.81
2023-11-17T01:02:44.131Z,1002.72
2023-11-17T01:03:05.341Z,1002.81
2023-11-17T01:03:26.503Z,1002.81
2023-11-17T01:03:47.742Z,1002.81
2023-11-17T01:04:08.849Z,1002.81
2023-11-17T01:04:29.937Z,1002.81
2023-11-17T01:04:50.976Z,1002.81
2023-11-17T01:05:12.054Z,1002.85
2023-11-17T01:05:33.097Z,1002.85
2023-11-17T01:05:54.160Z,1002.87
2023-11-17T01:06:15.210Z,1002.85
2023-11-17T01:06:36.264Z,1002.88
2023-11-17T01:06:57.352Z,1002.88
2023-11-17T01:07:18.539Z,1002.88
2023-11-17T01:07:39.610Z,1002.90
2023-11-17T01:08:00.660Z,1002.90
2023-11-17T01:08:21.728Z,1002.92
2023-11-17T01:08:42.793Z,1002.92
2023-11-17T01:09:03.856Z,1002.92
2023-11-17T01:09:24.923Z,1002.92
2023-11-17T01:09:46.034Z,1002.94
2023-11-17T01:10:07.109Z,1002.96
2023-11-17T01:10:28.207Z,1002.98
2023-11-17T01:10:49.242Z,1002.96
2023-11-17T01:11:10.295Z,1002.98
2023-11-17T01:11:31.377Z,1002.98
2023-11-17T01:11:52.439Z,1003.00
2023-11-17T01:12:13.489Z,1003.00
2023-11-17T01:12:34.579Z,1003.02
2023-11-17T01:12:55.683Z,1003.02
2023-11-17T01:13:16.818Z,1003.04
2023-11-17T01:13:37.977Z,1003.02
2023-11-17T01:13:59.057Z,1003.02
2023-11-17T01:14:20.091Z,1003.08
2023-11-17T01:14:41.148Z,1003.08
2023-11-17T01:15:02.204Z,1003.10
2023-11-17T01:15:23.275Z,1003.08
2023-11-17T01:15:44.363Z,1003.12
2023-11-17T01:16:05.443Z,1003.14
2023-11-17T01:16:26.507Z,1003.14
2023-11-17T01:16:47.591Z,1003.14
2023-11-17T01:17:08.705Z,1003.16
2023-11-17T01:17:29.898Z,1003.16
2023-11-17T01:17:51.015Z,1003.18
2023-11-17T01:18:12.131Z,1003.18
2023-11-17T01:18:33.159Z,1003.16
2023-11-17T01:18:54.256Z,1003.20
2023-11-17T01:19:15.352Z,1003.20
2023-11-17T01:19:36.394Z,1003.22
2023-11-17T01:19:57.444Z,1003.22
2023-11-17T01:20:18.504Z,1003.24
2023-11-17T01:20:39.569Z,1003.22
2023-11-17T01:21:00.636Z,1003.26
2023-11-17T01:21:21.702Z,1003.26
2023-11-17T01:21:42.804Z,1003.26
2023-11-17T01:22:03.903Z,1003.26
2023-11-17T01:22:24.956Z,1003.28
2023-11-17T01:22:45.987Z,1003.28
2023-11-17T01:23:07.056Z,1003.28
2023-11-17T01:23:28.138Z,1003.28
2023-11-17T01:23:49.162Z,1003.26
2023-11-17T01:24:10.223Z,1003.30
2023-11-17T01:24:31.270Z,1003.30
2023-11-17T01:24:52.382Z,1003.34
2023-11-17T01:25:13.463Z,1003.34
2023-11-17T01:25:34.481Z,1003.35
2023-11-17T01:25:55.562Z,1003.35
2023-11-17T01:26:16.619Z,1003.37
2023-11-17T01:26:37.678Z,1003.37
2023-11-17T01:26:58.733Z,1003.37
2023-11-17T01:27:19.779Z,1003.41
2023-11-17T01:27:40.909Z,1003.39
2023-11-17T01:28:02.023Z,1003.39
2023-11-17T01:28:23.109Z,1003.41
2023-11-17T01:28:44.184Z,1003.41
2023-11-17T01:29:05.235Z,1003.43
2023-11-17T01:29:26.299Z,1003.41
2023-11-17T01:29:47.374Z,1003.41
2023-11-17T01:30:08.419Z,1003.41
2023-11-17T01:30:29.474Z,1003.41
2023-11-17T01:30:50.550Z,1003.41
2023-11-17T01:31:11.625Z,1003.41
2023-11-17T01:31:32.655Z,1003.47
2023-11-17T01:31:53.719Z,1003.43
2023-11-17T01:32:14.782Z,1003.41
2023-11-17T01:32:35.850Z,1003.45
2023-11-17T01:32:56.924Z,1003.45
2023-11-17T01:33:17.948Z,1003.47
2023-11-17T01:33:39.017Z,1003.47
2023-11-17T01:34:00.119Z,1003.47
2023-11-17T01:34:21.314Z,1003.47
2023-11-17T01:34:42.434Z,1003.49
2023-11-17T01:35:03.548Z,1003.47
2023-11-17T01:35:24.574Z,1003.51
2023-11-17T01:35:45.638Z,1003.49
2023-11-17T01:36:06.710Z,1003.51
2023-11-17T01:36:27.782Z,1003.53
2023-11-17T01:36:48.886Z,1003.53
2023-11-17T01:37:09.965Z,1003.53
2023-11-17T01:37:31.004Z,1003.55
2023-11-17T01:37:52.046Z,1003.55
2023-11-17T01:38:13.092Z,1003.55
2023-11-17T01:38:43.257Z,1003.57
2023-11-17T01:39:01.138Z,1003.57
2023-11-17T01:39:22.291Z,1003.57
2023-11-17T01:39:43.394Z,1003.59
2023-11-17T01:40:04.508Z,1003.59
2023-11-17T01:40:25.647Z,1003.61
2023-11-17T01:40:46.750Z,1003.61
2023-11-17T01:41:07.833Z,1003.61
2023-11-17T01:41:28.898Z,1003.63
2023-11-17T01:41:49.971Z,1003.61
2023-11-17T01:42:11.016Z,1003.65
2023-11-17T01:42:32.091Z,1003.63
2023-11-17T01:42:53.214Z,1003.65
2023-11-17T01:43:14.351Z,1003.65
2023-11-17T01:43:35.449Z,1003.67
2023-11-17T01:43:56.496Z,1003.69
2023-11-17T01:44:17.636Z,1003.69
2023-11-17T01:44:38.666Z,1003.69
2023-11-17T01:44:59.721Z,1003.65
2023-11-17T01:45:20.792Z,1003.69
2023-11-17T01:45:41.899Z,1003.67
2023-11-17T01:46:03.032Z,1003.71
2023-11-17T01:46:24.153Z,1003.71
2023-11-17T01:46:45.274Z,1003.73
2023-11-17T01:47:06.400Z,1003.73
2023-11-17T01:47:27.493Z,1003.71
2023-11-17T01:47:48.622Z,1003.77
2023-11-17T01:48:09.665Z,1003.75
2023-11-17T01:48:30.716Z,1003.75
2023-11-17T01:48:51.796Z,1003.77
2023-11-17T01:49:12.868Z,1003.83
2023-11-17T01:49:33.904Z,1003.81
2023-11-17T01:49:54.962Z,1003.81
2023-11-17T01:50:16.033Z,1003.79
2023-11-17T01:50:37.140Z,1003.81
2023-11-17T01:50:58.188Z,1003.79
2023-11-17T01:51:19.239Z,1003.83
2023-11-17T01:51:40.308Z,1003.83
2023-11-17T01:52:01.415Z,1003.85
2023-11-17T01:52:22.479Z,1003.83
2023-11-17T01:52:43.516Z,1003.85
2023-11-17T01:53:04.573Z,1003.85
2023-11-17T01:53:25.634Z,1003.85
2023-11-17T01:53:46.702Z,1003.87
2023-11-17T01:54:07.740Z,1003.87
2023-11-17T01:54:28.812Z,1003.87
2023-11-17T01:54:49.931Z,1003.89
2023-11-17T01:55:11.140Z,1003.89
2023-11-17T01:55:32.198Z,1003.89
2023-11-17T01:55:53.243Z,1003.90
2023-11-17T01:56:14.306Z,1003.90
2023-11-17T01:56:35.346Z,1003.90
2023-11-17T01:56:56.407Z,1003.92
2023-11-17T01:57:17.473Z,1003.90
2023-11-17T01:57:38.563Z,1003.94
2023-11-17T01:57:59.633Z,1003.94
2023-11-17T01:58:20.744Z,1003.96
2023-11-17T01:58:41.794Z,1003.96
2023-11-17T01:59:02.860Z,1003.96
2023-11-17T01:59:23.916Z,1003.96
2023-11-17T01:59:44.976Z,1003.94
2023-11-17T02:00:06.040Z,1004.00
2023-11-17T02:00:27.110Z,1004.00
2023-11-17T02:00:48.186Z,1004.00
2023-11-17T02:01:09.292Z,1004.02
2023-11-17T02:01:30.417Z,1004.02
2023-11-17T02:01:51.472Z,1004.02
2023-11-17T02:02:12.527Z,1004.00
2023-11-17T02:02:33.677Z,1004.06
2023-11-17T02:02:54.801Z,1004.00
2023-11-17T02:03:15.910Z,1004.02
2023-11-17T02:03:37.036Z,1004.02
2023-11-17T02:03:58.194Z,1004.04
2023-11-17T02:04:19.367Z,1004.02
2023-11-17T02:04:40.440Z,1004.04
2023-11-17T02:05:01.487Z,1004.06
2023-11-17T02:05:22.555Z,1004.04
2023-11-17T02:05:43.613Z,1004.04
2023-11-17T02:06:04.674Z,1004.04
2023-11-17T02:06:25.732Z,1004.06
2023-11-17T02:06:46.872Z,1004.08
2023-11-17T02:07:07.935Z,1004.06
2023-11-17T02:07:29.014Z,1004.08
2023-11-17T02:07:50.085Z,1004.10
2023-11-17T02:08:11.136Z,1004.10
2023-11-17T02:08:32.193Z,1004.10
2023-11-17T02:08:53.242Z,1004.12
2023-11-17T02:09:14.312Z,1004.12
2023-11-17T02:09:35.373Z,1004.12
2023-11-17T02:09:56.456Z,1004.14
2023-11-17T02:10:17.563Z,1004.14
2023-11-17T02:10:38.609Z,1004.14
2023-11-17T02:10:59.669Z,1004.12
2023-11-17T02:11:20.737Z,1004.16
2023-11-17T02:11:41.806Z,1004.16
2023-11-17T02:12:02.862Z,1004.16
2023-11-17T02:12:23.945Z,1004.16
2023-11-17T02:12:45.030Z,1004.16
2023-11-17T02:13:06.137Z,1004.16
2023-11-17T02:13:27.250Z,1004.16
2023-11-17T02:13:48.336Z,1004.16
2023-11-17T02:14:09.413Z,1004.16
2023-11-17T02:14:30.446Z,1004.18
2023-11-17T02:14:51.511Z,1004.18
2023-11-17T02:15:12.627Z,1004.14
2023-11-17T02:15:34.730Z,1004.18
2023-11-17T02:15:56.812Z,1004.20
2023-11-17T02:16:17.910Z,1004.14
2023-11-17T02:16:39.079Z,1004.18
2023-11-17T02:17:00.180Z,1004.18
2023-11-17T02:17:21.263Z,1004.16
2023-11-17T02:17:42.414Z,1004.20
2023-11-17T02:18:03.488Z,1004.20
2023-11-17T02:18:24.529Z,1004.22
2023-11-17T02:18:45.597Z,1004.22
2023-11-17T02:19:06.674Z,1004.22
2023-11-17T02:19:27.705Z,1004.24
2023-11-17T02:19:48.763Z,1004.26
2023-11-17T02:20:09.875Z,1004.24
2023-11-17T02:20:30.933Z,1004.26
2023-11-17T02:20:51.987Z,1004.26
2023-11-17T02:21:13.052Z,1004.28
2023-11-17T02:21:34.107Z,1004.28
2023-11-17T02:21:55.217Z,1004.28
2023-11-17T02:22:16.328Z,1004.28
2023-11-17T02:22:37.394Z,1004.28
2023-11-17T02:22:58.437Z,1004.28
2023-11-17T02:23:19.495Z,1004.28
2023-11-17T02:23:40.569Z,1004.26
2023-11-17T02:24:01.647Z,1004.28
2023-11-17T02:24:22.686Z,1004.28
2023-11-17T02:24:43.730Z,1004.28
2023-11-17T02:25:04.846Z,1004.32
2023-11-17T02:25:26.073Z,1004.30
2023-11-17T02:25:47.160Z,1004.30
2023-11-17T02:26:08.230Z,1004.30
2023-11-17T02:26:29.288Z,1004.33
2023-11-17T02:26:50.365Z,1004.33
2023-11-17T02:27:11.407Z,1004.32
2023-11-17T02:27:32.490Z,1004.33
2023-11-17T02:27:53.585Z,1004.33
2023-11-17T02:28:14.659Z,1004.33
2023-11-17T02:28:35.757Z,1004.33
2023-11-17T02:28:56.820Z,1004.33
2023-11-17T02:29:17.884Z,1004.33
2023-11-17T02:29:39.184Z,1004.33
2023-11-17T02:30:00.337Z,1004.35
2023-11-17T02:30:21.420Z,1004.35
2023-11-17T02:30:42.524Z,1004.33
2023-11-17T02:31:03.646Z,1004.33
2023-11-17T02:31:24.871Z,1004.39
2023-11-17T02:31:45.996Z,1004.37
2023-11-17T02:32:07.078Z,1004.35
2023-11-17T02:32:28.156Z,1004.35
2023-11-17T02:32:49.317Z,1004.35
2023-11-17T02:33:10.369Z,1004.41
2023-11-17T02:33:31.519Z,1004.41
2023-11-17T02:33:52.600Z,1004.37
2023-11-17T02:34:13.676Z,1004.39
2023-11-17T02:34:34.712Z,1004.39
2023-11-17T02:34:55.774Z,1004.39
2023-11-17T02:35:16.863Z,1004.39
2023-11-17T02:35:37.891Z,1004.41
2023-11-17T02:35:58.968Z,1004.41
2023-11-17T02:36:20.029Z,1004.39
2023-11-17T02:36:41.090Z,1004.41
2023-11-17T02:37:02.190Z,1004.43
2023-11-17T02:37:23.299Z,1004.41
2023-11-17T02:37:44.319Z,1004.41
2023-11-17T02:38:05.378Z,1004.37
2023-11-17T02:38:26.436Z,1004.41
2023-11-17T02:38:47.516Z,1004.43
2023-11-17T02:39:08.571Z,1004.41
2023-11-17T02:39:29.619Z,1004.43
2023-11-17T02:39:50.700Z,1004.43
2023-11-17T02:40:11.768Z,1004.43
2023-11-17T02:40:32.840Z,1004.43
2023-11-17T02:40:53.876Z,1004.45
2023-11-17T02:41:14.929Z,1004.45
2023-11-17T02:41:35.991Z,1004.43
2023-11-17T02:41:57.054Z,1004.45
2023-11-17T02:42:18.107Z,1004.47
2023-11-17T02:42:39.177Z,1004.47
2023-11-17T02:43:00.283Z,1004.45
2023-11-17T02:43:21.451Z,1004.49
2023-11-17T02:43:42.517Z,1004.47
2023-11-17T02:44:03.667Z,1004.47
2023-11-17T02:44:24.733Z,1004.47
2023-11-17T02:44:45.790Z,1004.47
2023-11-17T02:45:06.851Z,1004.47
2023-11-17T02:45:27.935Z,1004.47
2023-11-17T02:45:49.054Z,1004.51
2023-11-17T02:46:10.162Z,1004.47
2023-11-17T02:46:31.307Z,1004.49
2023-11-17T02:46:52.481Z,1004.47
2023-11-17T02:47:13.556Z,1004.49
2023-11-17T02:47:34.623Z,1004.53
2023-11-17T02:47:56.629Z,1004.53
2023-11-17T02:48:24.623Z,1004.53
2023-11-17T02:48:44.677Z,1004.51
2023-11-17T02:49:05.757Z,1004.53
2023-11-17T02:49:26.786Z,1004.55
2023-11-17T02:49:47.973Z,1004.55
2023-11-17T02:50:08.989Z,1004.57
2023-11-17T02:50:30.064Z,1004.57
2023-11-17T02:50:51.116Z,1004.59
2023-11-17T02:51:12.168Z,1004.59
2023-11-17T02:51:33.233Z,1004.61
2023-11-17T02:51:54.364Z,1004.59
2023-11-17T02:52:15.473Z,1004.63
2023-11-17T02:52:36.502Z,1004.61
2023-11-17T02:52:57.555Z,1004.63
2023-11-17T02:53:18.620Z,1004.63
2023-11-17T02:53:39.669Z,1004.61
2023-11-17T02:54:00.718Z,1004.63
2023-11-17T02:54:21.780Z,1004.65
2023-11-17T02:54:42.883Z,1004.65
2023-11-17T02:55:03.999Z,1004.65
2023-11-17T02:55:25.114Z,1004.65
2023-11-17T02:55:46.178Z,1004.67
2023-11-17T02:56:07.620Z,1004.67
2023-11-17T02:56:28.673Z,1004.67
2023-11-17T02:56:49.712Z,1004.69
2023-11-17T02:57:10.826Z,1004.69
2023-11-17T02:57:31.926Z,1004.69
2023-11-17T02:57:52.985Z,1004.71
2023-11-17T02:58:14.089Z,1004.71
2023-11-17T02:58:35.139Z,1004.71
2023-11-17T02:58:56.224Z,1004.75
2023-11-17T02:59:17.271Z,1004.73
2023-11-17T02:59:38.355Z,1004.73
2023-11-17T02:59:59.379Z,1004.73
2023-11-17T03:00:20.455Z,1004.75
2023-11-17T03:00:41.509Z,1004.73
2023-11-17T03:01:02.669Z,1004.73
2023-11-17T03:01:23.901Z,1004.73
2023-11-17T03:01:45.008Z,1004.75
2023-11-17T03:02:06.117Z,1004.71
2023-11-17T03:02:27.280Z,1004.71
2023-11-17T03:02:48.423Z,1004.75
2023-11-17T03:03:09.537Z,1004.73
2023-11-17T03:03:30.657Z,1004.75
2023-11-17T03:03:51.813Z,1004.75
2023-11-17T03:04:12.991Z,1004.79
2023-11-17T03:04:34.167Z,1004.75
2023-11-17T03:04:55.448Z,1004.81
2023-11-17T03:05:16.646Z,1004.77
2023-11-17T03:05:37.721Z,1004.77
2023-11-17T03:05:58.799Z,1004.77
2023-11-17T03:06:19.843Z,1004.79
2023-11-17T03:06:40.911Z,1004.81
2023-11-17T03:07:02.042Z,1004.81
2023-11-17T03:07:23.171Z,1004.83
2023-11-17T03:07:44.261Z,1004.83
2023-11-17T03:08:05.322Z,1004.83
2023-11-17T03:08:26.374Z,1004.81
2023-11-17T03:08:47.436Z,1004.83
2023-11-17T03:09:08.491Z,1004.84
2023-11-17T03:09:29.589Z,1004.84
2023-11-17T03:09:50.718Z,1004.84
2023-11-17T03:10:11.809Z,1004.86
2023-11-17T03:10:32.939Z,1004.86
2023-11-17T03:10:54.002Z,1004.86
2023-11-17T03:11:15.043Z,1004.86
2023-11-17T03:11:36.095Z,1004.86
2023-11-17T03:11:57.162Z,1004.86
2023-11-17T03:12:18.265Z,1004.86
2023-11-17T03:12:39.328Z,1004.88
2023-11-17T03:13:00.395Z,1004.86
2023-11-17T03:13:21.472Z,1004.88
2023-11-17T03:13:42.541Z,1004.90
2023-11-17T03:14:03.589Z,1004.92
2023-11-17T03:14:24.654Z,1004.90
2023-11-17T03:14:45.738Z,1004.92
2023-11-17T03:15:06.798Z,1004.94
2023-11-17T03:15:27.844Z,1004.96
2023-11-17T03:15:48.953Z,1004.94
2023-11-17T03:16:10.093Z,1004.96
2023-11-17T03:16:31.292Z,1004.96
2023-11-17T03:16:52.396Z,1004.98
2023-11-17T03:17:13.449Z,1004.98
2023-11-17T03:17:34.522Z,1004.98
2023-11-17T03:17:55.570Z,1004.98
2023-11-17T03:18:16.608Z,1005.00
2023-11-17T03:18:37.658Z,1005.00
2023-11-17T03:18:58.724Z,1005.02
2023-11-17T03:19:19.782Z,1005.00
2023-11-17T03:19:40.846Z,1005.02
2023-11-17T03:20:01.930Z,1005.02
2023-11-17T03:20:22.966Z,1005.04
2023-11-17T03:20:44.016Z,1005.04
2023-11-17T03:21:05.072Z,1005.06
2023-11-17T03:21:26.116Z,1005.06
2023-11-17T03:21:47.213Z,1005.04
2023-11-17T03:22:08.394Z,1005.08
2023-11-17T03:22:29.540Z,1005.10
2023-11-17T03:22:50.597Z,1005.10
2023-11-17T03:23:11.637Z,1005.10
2023-11-17T03:23:32.730Z,1005.06
2023-11-17T03:23:53.765Z,1005.06
2023-11-17T03:24:14.824Z,1005.08
2023-11-17T03:24:35.916Z,1005.08
2023-11-17T03:24:56.985Z,1005.08
2023-11-17T03:25:18.047Z,1005.10
2023-11-17T03:25:39.109Z,1005.12
2023-11-17T03:26:00.221Z,1005.08
2023-11-17T03:26:21.244Z,1005.12
2023-11-17T03:26:42.301Z,1005.10
2023-11-17T03:27:03.364Z,1005.12
2023-11-17T03:27:24.405Z,1005.12
2023-11-17T03:27:45.473Z,1005.12
2023-11-17T03:28:06.553Z,1005.12
2023-11-17T03:28:27.700Z,1005.14
2023-11-17T03:28:48.762Z,1005.16
2023-11-17T03:29:09.832Z,1005.14
2023-11-17T03:29:30.906Z,1005.14
2023-11-17T03:29:52.004Z,1005.16
2023-11-17T03:30:13.076Z,1005.14
2023-11-17T03:30:34.116Z,1005.16
2023-11-17T03:30:55.211Z,1005.18
2023-11-17T03:31:16.517Z,1005.18
2023-11-17T03:31:37.710Z,1005.20
2023-11-17T03:31:59.157Z,1005.20
2023-11-17T03:32:20.487Z,1005.18
2023-11-17T03:32:41.654Z,1005.18
2023-11-17T03:33:02.948Z,1005.20
2023-11-17T03:33:24.146Z,1005.22
2023-11-17T03:33:45.219Z,1005.22
2023-11-17T03:34:06.305Z,1005.24
2023-11-17T03:34:27.359Z,1005.24
2023-11-17T03:34:48.406Z,1005.22
2023-11-17T03:35:09.462Z,1005.22
2023-11-17T03:35:30.537Z,1005.24
2023-11-17T03:35:51.625Z,1005.22
2023-11-17T03:36:12.682Z,1005.24
2023-11-17T03:36:33.750Z,1005.24
2023-11-17T03:36:54.865Z,1005.24
2023-11-17T03:37:15.977Z,1005.26
2023-11-17T03:37:37.028Z,1005.26
2023-11-17T03:37:58.083Z,1005.24
2023-11-17T03:38:19.149Z,1005.24
2023-11-17T03:38:40.200Z,1005.24
2023-11-17T03:39:01.288Z,1005.24
2023-11-17T03:39:22.335Z,1005.24
2023-11-17T03:39:43.569Z,1005.24
2023-11-17T03:40:04.652Z,1005.24
2023-11-17T03:40:25.700Z,1005.24
2023-11-17T03:40:46.816Z,1005.22
2023-11-17T03:41:07.880Z,1005.28
2023-11-17T03:41:28.930Z,1005.26
2023-11-17T03:41:50.031Z,1005.28
2023-11-17T03:42:11.138Z,1005.28
2023-11-17T03:42:32.175Z,1005.26
2023-11-17T03:42:53.252Z,1005.28
2023-11-17T03:43:14.323Z,1005.30
2023-11-17T03:43:35.394Z,1005.28
2023-11-17T03:43:56.456Z,1005.38
2023-11-17T03:44:17.545Z,1005.30
2023-11-17T03:44:38.595Z,1005.30
2023-11-17T03:44:59.645Z,1005.38
2023-11-17T03:45:20.693Z,1005.38
2023-11-17T03:45:41.771Z,1005.40
2023-11-17T03:46:02.969Z,1005.40
2023-11-17T03:46:24.029Z,1005.40
2023-11-17T03:46:45.096Z,1005.40
2023-11-17T03:47:06.186Z,1005.42
2023-11-17T03:47:27.290Z,1005.40
2023-11-17T03:47:48.438Z,1005.42
2023-11-17T03:48:09.512Z,1005.40
2023-11-17T03:48:30.538Z,1005.42
2023-11-17T03:48:51.639Z,1005.40
2023-11-17T03:49:12.720Z,1005.42
2023-11-17T03:49:33.886Z,1005.42
2023-11-17T03:49:54.924Z,1005.42
2023-11-17T03:50:15.980Z,1005.42
2023-11-17T03:50:37.034Z,1005.42
2023-11-17T03:50:58.111Z,1005.44
2023-11-17T03:51:19.198Z,1005.44
2023-11-17T03:51:40.274Z,1005.48
2023-11-17T03:52:01.382Z,1005.46
2023-11-17T03:52:22.410Z,1005.50
2023-11-17T03:52:43.478Z,1005.46
2023-11-17T03:53:04.507Z,1005.48
2023-11-17T03:53:25.563Z,1005.48
2023-11-17T03:53:46.630Z,1005.50
2023-11-17T03:54:07.689Z,1005.50
2023-11-17T03:54:28.740Z,1005.50
2023-11-17T03:54:49.823Z,1005.52
2023-11-17T03:55:10.915Z,1005.52
2023-11-17T03:55:32.105Z,1005.50
2023-11-17T03:55:53.123Z,1005.52
2023-11-17T03:56:14.209Z,1005.54
2023-11-17T03:56:35.234Z,1005.54
2023-11-17T03:56:56.290Z,1005.54
2023-11-17T03:57:17.341Z,1005.54
2023-11-17T03:57:38.402Z,1005.54
2023-11-17T03:57:59.531Z,1005.56
2023-11-17T03:58:20.614Z,1005.54
2023-11-17T03:58:41.693Z,1005.54
2023-11-17T03:59:02.786Z,1005.56
2023-11-17T03:59:23.911Z,1005.54
2023-11-17T03:59:44.966Z,1005.56
2023-11-17T04:00:06.066Z,1005.56
2023-11-17T04:00:27.109Z,1005.56
2023-11-17T04:00:48.211Z,1005.58
2023-11-17T04:01:09.453Z,1005.58
2023-11-17T04:01:30.686Z,1005.56
2023-11-17T04:01:51.861Z,1005.58
2023-11-17T04:02:12.935Z,1005.58
2023-11-17T04:02:34.050Z,1005.58
2023-11-17T04:02:55.133Z,1005.58
2023-11-17T04:03:16.238Z,1005.58
2023-11-17T04:03:37.329Z,1005.62
2023-11-17T04:03:58.441Z,1005.60
2023-11-17T04:04:19.829Z,1005.62
2023-11-17T04:04:40.921Z,1005.66
2023-11-17T04:05:01.978Z,1005.66
2023-11-17T04:05:23.028Z,1005.66
2023-11-17T04:05:44.089Z,1005.66
2023-11-17T04:06:05.135Z,1005.68
2023-11-17T04:06:26.194Z,1005.69
2023-11-17T04:06:47.242Z,1005.68
2023-11-17T04:07:08.319Z,1005.69
2023-11-17T04:07:29.377Z,1005.71
2023-11-17T04:07:50.423Z,1005.68
2023-11-17T04:08:11.476Z,1005.71
2023-11-17T04:08:32.526Z,1005.73
2023-11-17T04:08:53.593Z,1005.75
2023-11-17T04:09:14.637Z,1005.75
2023-11-17T04:09:35.695Z,1005.75
2023-11-17T04:09:56.796Z,1005.77
2023-11-17T04:10:17.894Z,1005.73
2023-11-17T04:10:38.916Z,1005.79
2023-11-17T04:10:59.969Z,1005.79
2023-11-17T04:11:21.046Z,1005.79
2023-11-17T04:11:42.078Z,1005.77
2023-11-17T04:12:03.136Z,1005.79
2023-11-17T04:12:24.192Z,1005.79
2023-11-17T04:12:45.257Z,1005.79
2023-11-17T04:13:06.304Z,1005.79
2023-11-17T04:13:27.383Z,1005.77
2023-11-17T04:13:48.448Z,1005.79
2023-11-17T04:14:09.496Z,1005.77
2023-11-17T04:14:30.568Z,1005.79
2023-11-17T04:14:51.686Z,1005.77
2023-11-17T04:15:14.748Z,1005.79